sensor_id;sensor_type;location;lat;lon;timestamp;pressure;altitude;pressure_sealevel;temperature;humidity
12358;BME280;6243;51.244;6.774;2023-01-26T00:00:27;148455.00;;;3.93;100.00
12358;BME280;6243;51.244;6.774;2023-01-26T00:02:53;148476.47;;;4.02;100.00
12358;BME280;6243;51.244;6.774;2023-01-26T00:05:19;148471.44;;;4.00;100.00
12358;BME280;6243;51.244;6.774;2023-01-26T00:07:45;148314.81;;;3.37;100.00
12358;BME280;6243;51.244;6.774;2023-01-26T00:10:11;148448.69;;;3.91;100.00
12358;BME280;6243;51.244;6.774;2023-01-26T00:12:36;148404.47;;;3.73;100.00
12358;BME280;6243;51.244;6.774;2023-01-26T00:15:02;148418.41;;;3.79;100.00
12358;BME280;6243;51.244;6.774;2023-01-26T00:17:28;148297.13;;;3.30;100.00
12358;BME280;6243;51.244;6.774;2023-01-26T00:19:55;148244.06;;;3.09;100.00
12358;BME280;6243;51.244;6.774;2023-01-26T00:22:26;148003.00;;;2.13;100.00
12358;BME280;6243;51.244;6.774;2023-01-26T00:24:51;148168.31;;;2.79;100.00
12358;BME280;6243;51.244;6.774;2023-01-26T00:27:17;148178.41;;;2.83;100.00
12358;BME280;6243;51.244;6.774;2023-01-26T00:29:42;148220.06;;;3.00;100.00
12358;BME280;6243;51.244;6.774;2023-01-26T00:32:08;148044.66;;;2.30;100.00
12358;BME280;6243;51.244;6.774;2023-01-26T00:34:34;147909.63;;;1.76;100.00
12358;BME280;6243;51.244;6.774;2023-01-26T00:36:59;148038.31;;;2.27;100.00
12358;BME280;6243;51.244;6.774;2023-01-26T00:39:26;148024.44;;;2.22;100.00
12358;BME280;6243;51.244;6.774;2023-01-26T00:41:52;147990.38;;;2.08;100.00
12358;BME280;6243;51.244;6.774;2023-01-26T00:44:17;147956.31;;;1.94;100.00
12358;BME280;6243;51.244;6.774;2023-01-26T00:46:42;147923.53;;;1.81;100.00
12358;BME280;6243;51.244;6.774;2023-01-26T00:49:08;147798.72;;;1.31;100.00
12358;BME280;6243;51.244;6.774;2023-01-26T00:51:33;147817.63;;;1.39;100.00
12358;BME280;6243;51.244;6.774;2023-01-26T00:53:59;147841.56;;;1.49;100.00
12358;BME280;6243;51.244;6.774;2023-01-26T00:56:26;147971.47;;;2.00;100.00
12358;BME280;6243;51.244;6.774;2023-01-26T00:58:51;148082.47;;;2.45;100.00
12358;BME280;6243;51.244;6.774;2023-01-26T01:01:17;148086.31;;;2.46;100.00
12358;BME280;6243;51.244;6.774;2023-01-26T01:03:42;147939.94;;;1.88;100.00
12358;BME280;6243;51.244;6.774;2023-01-26T01:06:08;148026.97;;;2.23;100.00
12358;BME280;6243;51.244;6.774;2023-01-26T01:08:33;148056.00;;;2.34;100.00
12358;BME280;6243;51.244;6.774;2023-01-26T01:11:04;147991.63;;;2.08;100.00
12358;BME280;6243;51.244;6.774;2023-01-26T01:13:31;148023.22;;;2.21;100.00
12358;BME280;6243;51.244;6.774;2023-01-26T01:15:57;148058.50;;;2.35;100.00
12358;BME280;6243;51.244;6.774;2023-01-26T01:18:22;148100.16;;;2.52;100.00
12358;BME280;6243;51.244;6.774;2023-01-26T01:20:48;148039.59;;;2.28;100.00
12358;BME280;6243;51.244;6.774;2023-01-26T01:23:13;148153.19;;;2.73;100.00
12358;BME280;6243;51.244;6.774;2023-01-26T01:25:39;148151.91;;;2.72;100.00
12358;BME280;6243;51.244;6.774;2023-01-26T01:28:04;148134.22;;;2.65;100.00
12358;BME280;6243;51.244;6.774;2023-01-26T01:30:31;148110.25;;;2.56;100.00
12358;BME280;6243;51.244;6.774;2023-01-26T01:32:56;148202.41;;;2.93;100.00
12358;BME280;6243;51.244;6.774;2023-01-26T01:35:22;148211.25;;;2.96;100.00
12358;BME280;6243;51.244;6.774;2023-01-26T01:37:47;148003.00;;;2.13;100.00
12358;BME280;6243;51.244;6.774;2023-01-26T01:40:13;148047.13;;;2.31;100.00
12358;BME280;6243;51.244;6.774;2023-01-26T01:42:45;148143.09;;;2.69;100.00
12358;BME280;6243;51.244;6.774;2023-01-26T01:45:37;148016.91;;;2.19;100.00
12358;BME280;6243;51.244;6.774;2023-01-26T01:48:10;148096.38;;;2.50;100.00
12358;BME280;6243;51.244;6.774;2023-01-26T01:50:38;148189.75;;;2.87;100.00
12358;BME280;6243;51.244;6.774;2023-01-26T01:53:05;148288.25;;;3.27;100.00
12358;BME280;6243;51.244;6.774;2023-01-26T01:55:31;148189.75;;;2.87;100.00
12358;BME280;6243;51.244;6.774;2023-01-26T01:57:58;148226.38;;;3.02;100.00
12358;BME280;6243;51.244;6.774;2023-01-26T02:00:25;148194.84;;;2.90;100.00
12358;BME280;6243;51.244;6.774;2023-01-26T02:02:55;148206.22;;;2.94;100.00
12358;BME280;6243;51.244;6.774;2023-01-26T02:05:26;148259.19;;;3.15;100.00
12358;BME280;6243;51.244;6.774;2023-01-26T02:07:55;148122.88;;;2.61;100.00
12358;BME280;6243;51.244;6.774;2023-01-26T02:10:22;148165.81;;;2.78;100.00
12358;BME280;6243;51.244;6.774;2023-01-26T02:12:49;148009.31;;;2.15;100.00
12358;BME280;6243;51.244;6.774;2023-01-26T02:15:17;148053.44;;;2.33;100.00
12358;BME280;6243;51.244;6.774;2023-01-26T02:17:42;148024.44;;;2.22;100.00
12358;BME280;6243;51.244;6.774;2023-01-26T02:20:14;148158.22;;;2.75;100.00
12358;BME280;6243;51.244;6.774;2023-01-26T02:22:44;148220.06;;;3.00;100.00
12358;BME280;6243;51.244;6.774;2023-01-26T02:25:21;148276.88;;;3.22;100.00
12358;BME280;6243;51.244;6.774;2023-01-26T02:27:51;148135.50;;;2.66;100.00
12358;BME280;6243;51.244;6.774;2023-01-26T02:30:17;148167.03;;;2.78;100.00
12358;BME280;6243;51.244;6.774;2023-01-26T02:32:42;148188.53;;;2.87;100.00
12358;BME280;6243;51.244;6.774;2023-01-26T02:35:08;148266.78;;;3.18;100.00
12358;BME280;6243;51.244;6.774;2023-01-26T02:37:34;148345.09;;;3.49;100.00
12358;BME280;6243;51.244;6.774;2023-01-26T02:40:02;148367.81;;;3.58;100.00
12358;BME280;6243;51.244;6.774;2023-01-26T02:42:29;148367.81;;;3.58;100.00
12358;BME280;6243;51.244;6.774;2023-01-26T02:44:56;148420.91;;;3.80;100.00
12358;BME280;6243;51.244;6.774;2023-01-26T02:47:22;148451.25;;;3.92;100.00
12358;BME280;6243;51.244;6.774;2023-01-26T02:49:47;148494.19;;;4.09;100.00
12358;BME280;6243;51.244;6.774;2023-01-26T02:52:13;148370.38;;;3.59;100.00
12358;BME280;6243;51.244;6.774;2023-01-26T02:54:39;148461.34;;;3.96;100.00
12358;BME280;6243;51.244;6.774;2023-01-26T02:57:04;148468.94;;;3.99;100.00
12358;BME280;6243;51.244;6.774;2023-01-26T02:59:30;148404.47;;;3.73;100.00
12358;BME280;6243;51.244;6.774;2023-01-26T03:01:57;148492.94;;;4.08;100.00
12358;BME280;6243;51.244;6.774;2023-01-26T03:04:22;148365.31;;;3.57;100.00
12358;BME280;6243;51.244;6.774;2023-01-26T03:06:48;148466.38;;;3.98;100.00
12358;BME280;6243;51.244;6.774;2023-01-26T03:09:13;148468.94;;;3.99;100.00
12358;BME280;6243;51.244;6.774;2023-01-26T03:11:39;148377.97;;;3.63;100.00
12358;BME280;6243;51.244;6.774;2023-01-26T03:14:05;148463.88;;;3.97;100.00
12358;BME280;6243;51.244;6.774;2023-01-26T03:16:30;148508.09;;;4.14;100.00
12358;BME280;6243;51.244;6.774;2023-01-26T03:18:57;148481.53;;;4.04;100.00
12358;BME280;6243;51.244;6.774;2023-01-26T03:21:22;148480.31;;;4.03;100.00
12358;BME280;6243;51.244;6.774;2023-01-26T03:23:48;148399.44;;;3.71;100.00
12358;BME280;6243;51.244;6.774;2023-01-26T03:26:14;148455.00;;;3.93;100.00
12358;BME280;6243;51.244;6.774;2023-01-26T03:28:39;148202.41;;;2.93;100.00
12358;BME280;6243;51.244;6.774;2023-01-26T03:31:06;148215.03;;;2.98;100.00
12358;BME280;6243;51.244;6.774;2023-01-26T03:33:31;148105.19;;;2.54;100.00
12358;BME280;6243;51.244;6.774;2023-01-26T03:35:58;148178.41;;;2.83;100.00
12358;BME280;6243;51.244;6.774;2023-01-26T03:38:23;148297.13;;;3.30;100.00
12358;BME280;6243;51.244;6.774;2023-01-26T03:40:49;148379.19;;;3.63;100.00
12358;BME280;6243;51.244;6.774;2023-01-26T03:43:14;148438.59;;;3.87;100.00
12358;BME280;6243;51.244;6.774;2023-01-26T03:45:40;148460.06;;;3.95;100.00
12358;BME280;6243;51.244;6.774;2023-01-26T03:48:07;148491.69;;;4.08;100.00
12358;BME280;6243;51.244;6.774;2023-01-26T03:50:33;148514.44;;;4.17;100.00
12358;BME280;6243;51.244;6.774;2023-01-26T03:53:00;148481.53;;;4.04;100.00
12358;BME280;6243;51.244;6.774;2023-01-26T03:55:26;148499.22;;;4.11;100.00
12358;BME280;6243;51.244;6.774;2023-01-26T03:57:51;148543.50;;;4.28;100.00
12358;BME280;6243;51.244;6.774;2023-01-26T04:00:17;148511.88;;;4.16;100.00
12358;BME280;6243;51.244;6.774;2023-01-26T04:02:42;148492.94;;;4.08;100.00
12358;BME280;6243;51.244;6.774;2023-01-26T04:05:08;148479.03;;;4.03;100.00
12358;BME280;6243;51.244;6.774;2023-01-26T04:07:33;148524.53;;;4.21;100.00
12358;BME280;6243;51.244;6.774;2023-01-26T04:10:00;148520.75;;;4.19;100.00
12358;BME280;6243;51.244;6.774;2023-01-26T04:12:26;148485.34;;;4.05;100.00
12358;BME280;6243;51.244;6.774;2023-01-26T04:14:52;148401.94;;;3.72;100.00
12358;BME280;6243;51.244;6.774;2023-01-26T04:17:17;148482.81;;;4.04;100.00
12358;BME280;6243;51.244;6.774;2023-01-26T04:19:43;148437.31;;;3.86;100.00
12358;BME280;6243;51.244;6.774;2023-01-26T04:22:08;148449.97;;;3.91;100.00
12358;BME280;6243;51.244;6.774;2023-01-26T04:24:34;148463.88;;;3.97;100.00
12358;BME280;6243;51.244;6.774;2023-01-26T04:27:01;148437.31;;;3.86;100.00
12358;BME280;6243;51.244;6.774;2023-01-26T04:29:26;148407.03;;;3.74;100.00
12358;BME280;6243;51.244;6.774;2023-01-26T04:31:52;148364.06;;;3.57;100.00
12358;BME280;6243;51.244;6.774;2023-01-26T04:34:17;148310.97;;;3.36;100.00
12358;BME280;6243;51.244;6.774;2023-01-26T04:36:43;148321.13;;;3.40;100.00
12358;BME280;6243;51.244;6.774;2023-01-26T04:39:08;148321.13;;;3.40;100.00
12358;BME280;6243;51.244;6.774;2023-01-26T04:41:34;148364.06;;;3.57;100.00
12358;BME280;6243;51.244;6.774;2023-01-26T04:44:01;148434.81;;;3.85;100.00
12358;BME280;6243;51.244;6.774;2023-01-26T04:46:26;148441.13;;;3.88;100.00
12358;BME280;6243;51.244;6.774;2023-01-26T04:48:52;148458.78;;;3.95;100.00
12358;BME280;6243;51.244;6.774;2023-01-26T04:51:19;148403.22;;;3.73;100.00
12358;BME280;6243;51.244;6.774;2023-01-26T04:53:45;148455.00;;;3.93;100.00
12358;BME280;6243;51.244;6.774;2023-01-26T04:56:18;148441.13;;;3.88;100.00
12358;BME280;6243;51.244;6.774;2023-01-26T04:58:44;148456.28;;;3.94;100.00
12358;BME280;6243;51.244;6.774;2023-01-26T05:01:11;148477.75;;;4.02;100.00
12358;BME280;6243;51.244;6.774;2023-01-26T05:03:36;148489.13;;;4.07;100.00
12358;BME280;6243;51.244;6.774;2023-01-26T05:06:03;148463.88;;;3.97;100.00
12358;BME280;6243;51.244;6.774;2023-01-26T05:08:28;148472.72;;;4.00;100.00
12358;BME280;6243;51.244;6.774;2023-01-26T05:10:54;148487.84;;;4.06;100.00
12358;BME280;6243;51.244;6.774;2023-01-26T05:13:19;148485.34;;;4.05;100.00
12358;BME280;6243;51.244;6.774;2023-01-26T05:15:45;148524.53;;;4.21;100.00
12358;BME280;6243;51.244;6.774;2023-01-26T05:18:12;148485.34;;;4.05;100.00
12358;BME280;6243;51.244;6.774;2023-01-26T05:20:37;148462.63;;;3.96;100.00
12358;BME280;6243;51.244;6.774;2023-01-26T05:23:03;148477.75;;;4.02;100.00
12358;BME280;6243;51.244;6.774;2023-01-26T05:25:28;148495.47;;;4.09;100.00
12358;BME280;6243;51.244;6.774;2023-01-26T05:27:54;148484.09;;;4.05;100.00
12358;BME280;6243;51.244;6.774;2023-01-26T05:30:20;148455.00;;;3.93;100.00
12358;BME280;6243;51.244;6.774;2023-01-26T05:32:45;148448.69;;;3.91;100.00
12358;BME280;6243;51.244;6.774;2023-01-26T05:35:12;148463.88;;;3.97;100.00
12358;BME280;6243;51.244;6.774;2023-01-26T05:37:38;148458.78;;;3.95;100.00
12358;BME280;6243;51.244;6.774;2023-01-26T05:40:04;148480.31;;;4.03;100.00
12358;BME280;6243;51.244;6.774;2023-01-26T05:42:29;148492.94;;;4.08;100.00
12358;BME280;6243;51.244;6.774;2023-01-26T05:44:55;148431.00;;;3.84;100.00
12358;BME280;6243;51.244;6.774;2023-01-26T05:47:20;148419.63;;;3.79;100.00
12358;BME280;6243;51.244;6.774;2023-01-26T05:49:46;148453.75;;;3.93;100.00
12358;BME280;6243;51.244;6.774;2023-01-26T05:52:14;148516.94;;;4.18;100.00
12358;BME280;6243;51.244;6.774;2023-01-26T05:54:40;148509.38;;;4.15;100.00
12358;BME280;6243;51.244;6.774;2023-01-26T05:57:06;148467.66;;;3.98;100.00
12358;BME280;6243;51.244;6.774;2023-01-26T05:59:32;148494.19;;;4.09;100.00
12358;BME280;6243;51.244;6.774;2023-01-26T06:01:58;148471.44;;;4.00;100.00
12358;BME280;6243;51.244;6.774;2023-01-26T06:04:23;148393.09;;;3.69;100.00
12358;BME280;6243;51.244;6.774;2023-01-26T06:06:51;148438.59;;;3.87;100.00
12358;BME280;6243;51.244;6.774;2023-01-26T06:09:18;148410.81;;;3.76;100.00
12358;BME280;6243;51.244;6.774;2023-01-26T06:11:44;148438.59;;;3.87;100.00
12358;BME280;6243;51.244;6.774;2023-01-26T06:14:09;148463.88;;;3.97;100.00
12358;BME280;6243;51.244;6.774;2023-01-26T06:16:35;148385.50;;;3.66;100.00
12358;BME280;6243;51.244;6.774;2023-01-26T06:19:00;148413.31;;;3.77;100.00
12358;BME280;6243;51.244;6.774;2023-01-26T06:21:26;148379.19;;;3.63;100.00
12358;BME280;6243;51.244;6.774;2023-01-26T06:23:51;148431.00;;;3.84;100.00
12358;BME280;6243;51.244;6.774;2023-01-26T06:26:18;148429.78;;;3.83;100.00
12358;BME280;6243;51.244;6.774;2023-01-26T06:28:43;148427.22;;;3.82;100.00
12358;BME280;6243;51.244;6.774;2023-01-26T06:31:09;148434.81;;;3.85;100.00
12358;BME280;6243;51.244;6.774;2023-01-26T06:33:36;148412.06;;;3.76;100.00
12358;BME280;6243;51.244;6.774;2023-01-26T06:36:02;148401.94;;;3.72;100.00
12358;BME280;6243;51.244;6.774;2023-01-26T06:38:28;148395.66;;;3.70;100.00
12358;BME280;6243;51.244;6.774;2023-01-26T06:40:54;148347.63;;;3.50;100.00
12358;BME280;6243;51.244;6.774;2023-01-26T06:43:21;148351.41;;;3.52;100.00
12358;BME280;6243;51.244;6.774;2023-01-26T06:45:46;148359.00;;;3.55;100.00
12358;BME280;6243;51.244;6.774;2023-01-26T06:48:12;148384.25;;;3.65;100.00
12358;BME280;6243;51.244;6.774;2023-01-26T06:50:38;148257.97;;;3.15;100.00
12358;BME280;6243;51.244;6.774;2023-01-26T06:53:24;148316.03;;;3.38;100.00
12358;BME280;6243;51.244;6.774;2023-01-26T06:55:50;148331.22;;;3.44;100.00
12358;BME280;6243;51.244;6.774;2023-01-26T06:58:15;148362.78;;;3.56;100.00
12358;BME280;6243;51.244;6.774;2023-01-26T07:00:43;148407.03;;;3.74;100.00
12358;BME280;6243;51.244;6.774;2023-01-26T07:03:09;148388.06;;;3.67;100.00
12358;BME280;6243;51.244;6.774;2023-01-26T07:05:34;148441.13;;;3.88;100.00
12358;BME280;6243;51.244;6.774;2023-01-26T07:08:00;148457.56;;;3.94;100.00
12358;BME280;6243;51.244;6.774;2023-01-26T07:10:25;148433.53;;;3.85;100.00
12358;BME280;6243;51.244;6.774;2023-01-26T07:12:51;148409.53;;;3.75;100.00
12358;BME280;6243;51.244;6.774;2023-01-26T07:15:16;148341.31;;;3.48;100.00
12358;BME280;6243;51.244;6.774;2023-01-26T07:17:43;148399.44;;;3.71;100.00
12358;BME280;6243;51.244;6.774;2023-01-26T07:20:10;148388.06;;;3.67;100.00
12358;BME280;6243;51.244;6.774;2023-01-26T07:22:35;148439.88;;;3.87;100.00
12358;BME280;6243;51.244;6.774;2023-01-26T07:25:01;148431.00;;;3.84;100.00
12358;BME280;6243;51.244;6.774;2023-01-26T07:27:26;148470.16;;;3.99;100.00
12358;BME280;6243;51.244;6.774;2023-01-26T07:29:52;148443.66;;;3.89;100.00
12358;BME280;6243;51.244;6.774;2023-01-26T07:32:17;148453.75;;;3.93;100.00
12358;BME280;6243;51.244;6.774;2023-01-26T07:34:44;148451.25;;;3.92;100.00
12358;BME280;6243;51.244;6.774;2023-01-26T07:37:09;148453.75;;;3.93;100.00
12358;BME280;6243;51.244;6.774;2023-01-26T07:39:35;148468.94;;;3.99;100.00
12358;BME280;6243;51.244;6.774;2023-01-26T07:42:00;148461.34;;;3.96;100.00
12358;BME280;6243;51.244;6.774;2023-01-26T07:44:26;148481.53;;;4.04;100.00
12358;BME280;6243;51.244;6.774;2023-01-26T07:46:51;148475.25;;;4.01;100.00
12358;BME280;6243;51.244;6.774;2023-01-26T07:49:17;148480.31;;;4.03;100.00
12358;BME280;6243;51.244;6.774;2023-01-26T07:51:44;148457.56;;;3.94;100.00
12358;BME280;6243;51.244;6.774;2023-01-26T07:54:10;148476.47;;;4.02;100.00
12358;BME280;6243;51.244;6.774;2023-01-26T07:56:35;148455.00;;;3.93;100.00
12358;BME280;6243;51.244;6.774;2023-01-26T07:59:01;148461.34;;;3.96;100.00
12358;BME280;6243;51.244;6.774;2023-01-26T08:01:26;148481.53;;;4.04;100.00
12358;BME280;6243;51.244;6.774;2023-01-26T08:03:52;148518.19;;;4.18;100.00
12358;BME280;6243;51.244;6.774;2023-01-26T08:06:18;148514.44;;;4.17;100.00
12358;BME280;6243;51.244;6.774;2023-01-26T08:08:45;148484.09;;;4.05;100.00
12358;BME280;6243;51.244;6.774;2023-01-26T08:11:11;148427.22;;;3.82;100.00
12358;BME280;6243;51.244;6.774;2023-01-26T08:13:37;148447.41;;;3.90;100.00
12358;BME280;6243;51.244;6.774;2023-01-26T08:16:05;148471.44;;;4.00;100.00
12358;BME280;6243;51.244;6.774;2023-01-26T08:18:31;148456.28;;;3.94;100.00
12358;BME280;6243;51.244;6.774;2023-01-26T08:20:57;148500.50;;;4.11;100.00
12358;BME280;6243;51.244;6.774;2023-01-26T08:23:23;148539.69;;;4.27;100.00
12358;BME280;6243;51.244;6.774;2023-01-26T08:25:49;148528.31;;;4.22;100.00
12358;BME280;6243;51.244;6.774;2023-01-26T08:28:15;148511.88;;;4.16;100.00
12358;BME280;6243;51.244;6.774;2023-01-26T08:30:40;148516.94;;;4.18;100.00
12358;BME280;6243;51.244;6.774;2023-01-26T08:33:06;148542.22;;;4.28;100.00
12358;BME280;6243;51.244;6.774;2023-01-26T08:35:32;148528.31;;;4.22;100.00
12358;BME280;6243;51.244;6.774;2023-01-26T08:37:58;148547.28;;;4.30;100.00
12358;BME280;6243;51.244;6.774;2023-01-26T08:40:24;148535.91;;;4.25;100.00
12358;BME280;6243;51.244;6.774;2023-01-26T08:42:51;148534.63;;;4.25;100.00
12358;BME280;6243;51.244;6.774;2023-01-26T08:45:17;148525.81;;;4.21;100.00
12358;BME280;6243;51.244;6.774;2023-01-26T08:47:42;148566.25;;;4.38;100.00
12358;BME280;6243;51.244;6.774;2023-01-26T08:50:09;148570.03;;;4.39;100.00
12358;BME280;6243;51.244;6.774;2023-01-26T08:52:35;148553.59;;;4.32;100.00
12358;BME280;6243;51.244;6.774;2023-01-26T08:55:02;148570.03;;;4.39;100.00
12358;BME280;6243;51.244;6.774;2023-01-26T08:57:27;148590.28;;;4.47;100.00
12358;BME280;6243;51.244;6.774;2023-01-26T08:59:54;148602.88;;;4.52;100.00
12358;BME280;6243;51.244;6.774;2023-01-26T09:02:20;148597.84;;;4.50;100.00
12358;BME280;6243;51.244;6.774;2023-01-26T09:04:45;148558.66;;;4.35;100.00
12358;BME280;6243;51.244;6.774;2023-01-26T09:07:11;148575.09;;;4.41;100.00
12358;BME280;6243;51.244;6.774;2023-01-26T09:09:37;148610.50;;;4.55;100.00
12358;BME280;6243;51.244;6.774;2023-01-26T09:12:03;148606.72;;;4.54;100.00
12358;BME280;6243;51.244;6.774;2023-01-26T09:14:29;148630.69;;;4.63;100.00
12358;BME280;6243;51.244;6.774;2023-01-26T09:16:56;148640.84;;;4.67;100.00
12358;BME280;6243;51.244;6.774;2023-01-26T09:19:21;148657.28;;;4.74;100.00
12358;BME280;6243;51.244;6.774;2023-01-26T09:21:51;148626.94;;;4.62;100.00
12358;BME280;6243;51.244;6.774;2023-01-26T09:24:16;148623.16;;;4.60;100.00
12358;BME280;6243;51.244;6.774;2023-01-26T09:26:42;148631.97;;;4.64;100.00
12358;BME280;6243;51.244;6.774;2023-01-26T09:29:07;148637.03;;;4.66;100.00
12358;BME280;6243;51.244;6.774;2023-01-26T09:31:33;148592.78;;;4.48;100.00
12358;BME280;6243;51.244;6.774;2023-01-26T09:34:00;148586.47;;;4.46;100.00
12358;BME280;6243;51.244;6.774;2023-01-26T09:36:26;148657.28;;;4.74;100.00
12358;BME280;6243;51.244;6.774;2023-01-26T09:38:52;148629.47;;;4.63;100.00
12358;BME280;6243;51.244;6.774;2023-01-26T09:41:41;148620.59;;;4.59;100.00
12358;BME280;6243;51.244;6.774;2023-01-26T09:44:09;148649.69;;;4.71;100.00
12358;BME280;6243;51.244;6.774;2023-01-26T09:46:45;148644.63;;;4.69;100.00
12358;BME280;6243;51.244;6.774;2023-01-26T09:49:19;148620.59;;;4.59;100.00
12358;BME280;6243;51.244;6.774;2023-01-26T09:51:49;148609.22;;;4.55;100.00
12358;BME280;6243;51.244;6.774;2023-01-26T09:54:23;148640.84;;;4.67;100.00
12358;BME280;6243;51.244;6.774;2023-01-26T09:56:50;148681.31;;;4.83;100.00
12358;BME280;6243;51.244;6.774;2023-01-26T09:59:26;148663.63;;;4.76;100.00
12358;BME280;6243;51.244;6.774;2023-01-26T10:02:00;148659.78;;;4.75;100.00
12358;BME280;6243;51.244;6.774;2023-01-26T10:04:32;148621.88;;;4.60;100.00
12358;BME280;6243;51.244;6.774;2023-01-26T10:07:00;148629.47;;;4.63;100.00
12358;BME280;6243;51.244;6.774;2023-01-26T10:09:28;148663.63;;;4.76;100.00
12358;BME280;6243;51.244;6.774;2023-01-26T10:11:59;148683.81;;;4.84;100.00
12358;BME280;6243;51.244;6.774;2023-01-26T10:14:31;148710.41;;;4.95;100.00
12358;BME280;6243;51.244;6.774;2023-01-26T10:16:58;148744.56;;;5.09;100.00
12358;BME280;6243;51.244;6.774;2023-01-26T10:19:32;148729.34;;;5.02;100.00
12358;BME280;6243;51.244;6.774;2023-01-26T10:22:06;148704.09;;;4.92;100.00
12358;BME280;6243;51.244;6.774;2023-01-26T10:24:34;148734.41;;;5.04;100.00
12358;BME280;6243;51.244;6.774;2023-01-26T10:26:59;148688.88;;;4.86;100.00
12358;BME280;6243;51.244;6.774;2023-01-26T10:29:25;148744.56;;;5.09;100.00
12358;BME280;6243;51.244;6.774;2023-01-26T10:31:50;148700.25;;;4.91;100.00
12358;BME280;6243;51.244;6.774;2023-01-26T10:34:19;148712.91;;;4.96;100.00
12358;BME280;6243;51.244;6.774;2023-01-26T10:36:48;148763.50;;;5.16;100.00
12358;BME280;6243;51.244;6.774;2023-01-26T10:39:15;148828.03;;;5.42;100.00
12358;BME280;6243;51.244;6.774;2023-01-26T10:41:55;148793.88;;;5.28;100.00
12358;BME280;6243;51.244;6.774;2023-01-26T10:44:24;148816.66;;;5.37;100.00
12358;BME280;6243;51.244;6.774;2023-01-26T10:47:13;148828.03;;;5.42;100.00
12358;BME280;6243;51.244;6.774;2023-01-26T10:49:39;148841.97;;;5.47;100.00
12358;BME280;6243;51.244;6.774;2023-01-26T10:52:12;148869.81;;;5.58;100.00
12358;BME280;6243;51.244;6.774;2023-01-26T10:54:39;148850.81;;;5.51;100.00
12358;BME280;6243;51.244;6.774;2023-01-26T10:57:13;148845.75;;;5.49;100.00
12358;BME280;6243;51.244;6.774;2023-01-26T10:59:42;148854.59;;;5.52;100.00
12358;BME280;6243;51.244;6.774;2023-01-26T11:02:24;148845.75;;;5.49;100.00
12358;BME280;6243;51.244;6.774;2023-01-26T11:05:20;148843.22;;;5.48;100.00
12358;BME280;6243;51.244;6.774;2023-01-26T11:07:48;148816.66;;;5.37;100.00
12358;BME280;6243;51.244;6.774;2023-01-26T11:10:21;148838.16;;;5.46;100.00
12358;BME280;6243;51.244;6.774;2023-01-26T11:12:47;148845.75;;;5.49;100.00
12358;BME280;6243;51.244;6.774;2023-01-26T11:15:16;148864.75;;;5.56;100.00
12358;BME280;6243;51.244;6.774;2023-01-26T11:17:48;148878.66;;;5.62;100.00
12358;BME280;6243;51.244;6.774;2023-01-26T11:20:33;148944.53;;;5.88;100.00
12358;BME280;6243;51.244;6.774;2023-01-26T11:23:04;148910.31;;;5.74;100.00
12358;BME280;6243;51.244;6.774;2023-01-26T11:25:38;148903.97;;;5.72;100.00
12358;BME280;6243;51.244;6.774;2023-01-26T11:28:19;148976.16;;;6.01;100.00
12358;BME280;6243;51.244;6.774;2023-01-26T11:31:03;148978.72;;;6.02;100.00
12358;BME280;6243;51.244;6.774;2023-01-26T11:33:36;148973.66;;;6.00;100.00
12358;BME280;6243;51.244;6.774;2023-01-26T11:36:10;149023.03;;;6.19;100.00
12358;BME280;6243;51.244;6.774;2023-01-26T11:38:40;149059.75;;;6.34;100.00
12358;BME280;6243;51.244;6.774;2023-01-26T11:41:22;149030.63;;;6.22;100.00
12358;BME280;6243;51.244;6.774;2023-01-26T11:44:00;149000.22;;;6.10;100.00
12358;BME280;6243;51.244;6.774;2023-01-26T11:46:41;148982.50;;;6.03;100.00
12358;BME280;6243;51.244;6.774;2023-01-26T11:49:19;149030.63;;;6.22;100.00
12358;BME280;6243;51.244;6.774;2023-01-26T11:51:57;149030.63;;;6.22;100.00
12358;BME280;6243;51.244;6.774;2023-01-26T11:54:39;149038.19;;;6.25;100.00
12358;BME280;6243;51.244;6.774;2023-01-26T11:57:15;149066.09;;;6.36;100.00
12358;BME280;6243;51.244;6.774;2023-01-26T11:59:48;149010.34;;;6.14;100.00
12358;BME280;6243;51.244;6.774;2023-01-26T12:02:24;149050.88;;;6.30;100.00
12358;BME280;6243;51.244;6.774;2023-01-26T12:04:52;149014.19;;;6.16;100.00
12358;BME280;6243;51.244;6.774;2023-01-26T12:07:21;148981.22;;;6.03;100.00
12358;BME280;6243;51.244;6.774;2023-01-26T12:09:49;149011.63;;;6.15;100.00
12358;BME280;6243;51.244;6.774;2023-01-26T12:12:19;149026.81;;;6.21;100.00
12358;BME280;6243;51.244;6.774;2023-01-26T12:14:51;149012.91;;;6.15;100.00
12358;BME280;6243;51.244;6.774;2023-01-26T12:17:29;148936.94;;;5.85;100.00
12358;BME280;6243;51.244;6.774;2023-01-26T12:20:02;148992.63;;;6.07;100.00
12358;BME280;6243;51.244;6.774;2023-01-26T12:22:32;148974.88;;;6.00;100.00
12358;BME280;6243;51.244;6.774;2023-01-26T12:25:02;149005.28;;;6.12;100.00
12358;BME280;6243;51.244;6.774;2023-01-26T12:27:35;149049.59;;;6.30;100.00
12358;BME280;6243;51.244;6.774;2023-01-26T12:30:17;148986.28;;;6.05;100.00
12358;BME280;6243;51.244;6.774;2023-01-26T12:32:45;148949.59;;;5.90;100.00
12358;BME280;6243;51.244;6.774;2023-01-26T12:35:11;148967.31;;;5.97;100.00
12358;BME280;6243;51.244;6.774;2023-01-26T12:37:45;148982.50;;;6.03;100.00
12358;BME280;6243;51.244;6.774;2023-01-26T12:40:28;149031.88;;;6.23;100.00
12358;BME280;6243;51.244;6.774;2023-01-26T12:43:05;148988.84;;;6.06;100.00
12358;BME280;6243;51.244;6.774;2023-01-26T12:45:39;149024.28;;;6.20;100.00
12358;BME280;6243;51.244;6.774;2023-01-26T12:48:11;149023.03;;;6.19;100.00
12358;BME280;6243;51.244;6.774;2023-01-26T12:50:40;149023.03;;;6.19;100.00
12358;BME280;6243;51.244;6.774;2023-01-26T12:53:12;149040.75;;;6.26;100.00
12358;BME280;6243;51.244;6.774;2023-01-26T12:55:44;149049.59;;;6.30;100.00
12358;BME280;6243;51.244;6.774;2023-01-26T12:58:17;149039.47;;;6.26;100.00
12358;BME280;6243;51.244;6.774;2023-01-26T13:00:59;149055.94;;;6.32;100.00
12358;BME280;6243;51.244;6.774;2023-01-26T13:03:29;149069.88;;;6.38;100.00